sensor_id;sensor_type;location;lat;lon;timestamp;pressure;altitude;pressure_sealevel;temperature;humidity
70833;BME280;58452;59.418;17.962;2023-04-06T00:00:48;102389.13;;;-0.04;79.62
70833;BME280;58452;59.418;17.962;2023-04-06T00:03:14;102388.44;;;-0.12;79.35
70833;BME280;58452;59.418;17.962;2023-04-06T00:05:41;102390.16;;;-0.13;79.11
70833;BME280;58452;59.418;17.962;2023-04-06T00:08:06;102389.94;;;-0.42;79.98
70833;BME280;58452;59.418;17.962;2023-04-06T00:10:32;102401.63;;;-0.36;81.24
70833;BME280;58452;59.418;17.962;2023-04-06T00:12:58;102394.03;;;-0.36;80.66
70833;BME280;58452;59.418;17.962;2023-04-06T00:15:24;102399.75;;;-0.27;80.80
70833;BME280;58452;59.418;17.962;2023-04-06T00:17:50;102395.47;;;-0.23;80.26
70833;BME280;58452;59.418;17.962;2023-04-06T00:20:17;102400.72;;;-0.32;79.26
70833;BME280;58452;59.418;17.962;2023-04-06T00:22:43;102398.44;;;-0.44;79.50
70833;BME280;58452;59.418;17.962;2023-04-06T00:25:09;102399.22;;;-0.41;79.85
70833;BME280;58452;59.418;17.962;2023-04-06T00:27:36;102398.22;;;-0.34;79.52
70833;BME280;58452;59.418;17.962;2023-04-06T00:30:03;102395.69;;;-0.35;79.06
70833;BME280;58452;59.418;17.962;2023-04-06T00:32:30;102398.81;;;-0.64;80.72
70833;BME280;58452;59.418;17.962;2023-04-06T00:34:55;102392.75;;;-0.56;80.45
70833;BME280;58452;59.418;17.962;2023-04-06T00:37:21;102396.81;;;-0.48;80.50
70833;BME280;58452;59.418;17.962;2023-04-06T00:39:46;102402.78;;;-0.51;80.18
70833;BME280;58452;59.418;17.962;2023-04-06T00:42:13;102396.28;;;-0.64;81.17
70833;BME280;58452;59.418;17.962;2023-04-06T00:44:42;102395.56;;;-0.71;81.96
70833;BME280;58452;59.418;17.962;2023-04-06T00:47:08;102396.34;;;-0.67;82.82
70833;BME280;58452;59.418;17.962;2023-04-06T00:49:34;102394.59;;;-0.65;82.51
70833;BME280;58452;59.418;17.962;2023-04-06T00:52:00;102403.81;;;-0.61;82.33
70833;BME280;58452;59.418;17.962;2023-04-06T00:54:26;102401.22;;;-0.58;83.11
70833;BME280;58452;59.418;17.962;2023-04-06T00:56:52;102400.34;;;-0.56;82.52
70833;BME280;58452;59.418;17.962;2023-04-06T00:59:17;102396.13;;;-0.57;82.69
70833;BME280;58452;59.418;17.962;2023-04-06T01:01:43;102397.69;;;-0.51;82.24
70833;BME280;58452;59.418;17.962;2023-04-06T01:04:09;102401.28;;;-0.60;82.19
70833;BME280;58452;59.418;17.962;2023-04-06T01:06:34;102404.81;;;-0.68;81.79
70833;BME280;58452;59.418;17.962;2023-04-06T01:09:00;102403.97;;;-0.67;81.71
70833;BME280;58452;59.418;17.962;2023-04-06T01:11:26;102400.50;;;-0.65;82.15
70833;BME280;58452;59.418;17.962;2023-04-06T01:13:52;102398.94;;;-0.70;81.77
70833;BME280;58452;59.418;17.962;2023-04-06T01:16:17;102405.00;;;-0.77;81.16
70833;BME280;58452;59.418;17.962;2023-04-06T01:18:43;102409.97;;;-0.73;81.16
70833;BME280;58452;59.418;17.962;2023-04-06T01:21:09;102408.44;;;-0.81;81.42
70833;BME280;58452;59.418;17.962;2023-04-06T01:23:42;102403.25;;;-0.75;81.24
70833;BME280;58452;59.418;17.962;2023-04-06T01:26:07;102407.31;;;-0.67;81.09
70833;BME280;58452;59.418;17.962;2023-04-06T01:28:33;102408.31;;;-0.75;80.76
70833;BME280;58452;59.418;17.962;2023-04-06T01:30:58;102408.34;;;-0.77;80.89
70833;BME280;58452;59.418;17.962;2023-04-06T01:33:24;102404.94;;;-0.74;81.58
70833;BME280;58452;59.418;17.962;2023-04-06T01:35:50;102403.19;;;-0.71;81.57
70833;BME280;58452;59.418;17.962;2023-04-06T01:38:15;102394.59;;;-0.65;81.71
70833;BME280;58452;59.418;17.962;2023-04-06T01:40:41;102400.59;;;-0.69;81.51
70833;BME280;58452;59.418;17.962;2023-04-06T01:43:06;102401.34;;;-0.64;81.46
70833;BME280;58452;59.418;17.962;2023-04-06T01:45:32;102403.06;;;-0.65;81.46
70833;BME280;58452;59.418;17.962;2023-04-06T01:47:57;102403.81;;;-0.61;81.27
70833;BME280;58452;59.418;17.962;2023-04-06T01:50:23;102401.22;;;-0.58;80.34
70833;BME280;58452;59.418;17.962;2023-04-06T01:52:48;102404.59;;;-0.56;80.30
70833;BME280;58452;59.418;17.962;2023-04-06T01:55:14;102413.09;;;-0.60;80.96
70833;BME280;58452;59.418;17.962;2023-04-06T01:57:39;102407.97;;;-0.57;80.50
70833;BME280;58452;59.418;17.962;2023-04-06T02:00:07;102412.41;;;-0.67;79.94
70833;BME280;58452;59.418;17.962;2023-04-06T02:02:32;102406.84;;;-0.85;81.59
70833;BME280;58452;59.418;17.962;2023-04-06T02:04:58;102414.34;;;-0.81;81.35
70833;BME280;58452;59.418;17.962;2023-04-06T02:07:23;102406.66;;;-0.76;82.13
70833;BME280;58452;59.418;17.962;2023-04-06T02:09:53;102398.06;;;-0.69;83.07
70833;BME280;58452;59.418;17.962;2023-04-06T02:12:19;102404.59;;;-0.56;83.07
70833;BME280;58452;59.418;17.962;2023-04-06T02:14:45;102411.19;;;-0.49;82.63
70833;BME280;58452;59.418;17.962;2023-04-06T02:17:10;102412.00;;;-0.47;83.73
70833;BME280;58452;59.418;17.962;2023-04-06T02:19:36;102415.22;;;-0.39;83.42
70833;BME280;58452;59.418;17.962;2023-04-06T02:22:01;102410.16;;;-0.39;83.73
70833;BME280;58452;59.418;17.962;2023-04-06T02:24:27;102412.44;;;-0.27;83.35
70833;BME280;58452;59.418;17.962;2023-04-06T02:26:52;102415.69;;;-0.22;83.65
70833;BME280;58452;59.418;17.962;2023-04-06T02:29:17;102415.53;;;-0.13;84.09
70833;BME280;58452;59.418;17.962;2023-04-06T02:31:43;102411.16;;;-0.06;84.14
70833;BME280;58452;59.418;17.962;2023-04-06T02:34:08;102413.66;;;-0.05;83.53
70833;BME280;58452;59.418;17.962;2023-04-06T02:36:37;102408.38;;;0.05;84.36
70833;BME280;58452;59.418;17.962;2023-04-06T02:39:02;102406.66;;;0.07;83.57
70833;BME280;58452;59.418;17.962;2023-04-06T02:41:28;102408.25;;;0.11;83.86
70833;BME280;58452;59.418;17.962;2023-04-06T02:43:54;102416.50;;;0.19;83.49
70833;BME280;58452;59.418;17.962;2023-04-06T02:46:19;102412.28;;;0.19;83.88
70833;BME280;58452;59.418;17.962;2023-04-06T02:48:45;102405.47;;;0.21;83.89
70833;BME280;58452;59.418;17.962;2023-04-06T02:51:10;102413.75;;;0.29;84.15
70833;BME280;58452;59.418;17.962;2023-04-06T02:53:36;102410.06;;;0.41;84.14
70833;BME280;58452;59.418;17.962;2023-04-06T02:56:01;102422.72;;;0.44;84.27
70833;BME280;58452;59.418;17.962;2023-04-06T02:58:27;102421.75;;;0.48;84.39
70833;BME280;58452;59.418;17.962;2023-04-06T03:00:52;102422.66;;;0.47;84.23
70833;BME280;58452;59.418;17.962;2023-04-06T03:03:18;102419.19;;;0.51;84.20
70833;BME280;58452;59.418;17.962;2023-04-06T03:05:43;102418.19;;;0.57;83.91
70833;BME280;58452;59.418;17.962;2023-04-06T03:08:09;102422.28;;;0.62;84.07
70833;BME280;58452;59.418;17.962;2023-04-06T03:10:34;102414.53;;;0.67;84.13
70833;BME280;58452;59.418;17.962;2023-04-06T03:13:00;102421.31;;;0.66;84.19
70833;BME280;58452;59.418;17.962;2023-04-06T03:15:25;102421.19;;;0.72;84.24
70833;BME280;58452;59.418;17.962;2023-04-06T03:17:51;102410.19;;;0.72;83.10
70833;BME280;58452;59.418;17.962;2023-04-06T03:20:16;102417.78;;;0.73;83.83
70833;BME280;58452;59.418;17.962;2023-04-06T03:22:42;102421.84;;;0.80;83.52
70833;BME280;58452;59.418;17.962;2023-04-06T03:25:07;102423.44;;;0.84;83.44
70833;BME280;58452;59.418;17.962;2023-04-06T03:27:33;102409.84;;;0.85;83.84
70833;BME280;58452;59.418;17.962;2023-04-06T03:29:58;102428.38;;;0.89;83.78
70833;BME280;58452;59.418;17.962;2023-04-06T03:32:24;102424.94;;;0.91;83.49
70833;BME280;58452;59.418;17.962;2023-04-06T03:34:49;102425.00;;;0.88;83.45
70833;BME280;58452;59.418;17.962;2023-04-06T03:37:15;102429.69;;;0.71;83.60
70833;BME280;58452;59.418;17.962;2023-04-06T03:39:40;102431.44;;;0.69;84.03
70833;BME280;58452;59.418;17.962;2023-04-06T03:42:06;102428.66;;;0.78;84.17
70833;BME280;58452;59.418;17.962;2023-04-06T03:44:31;102433.59;;;0.84;83.95
70833;BME280;58452;59.418;17.962;2023-04-06T03:46:57;102431.75;;;0.89;83.41
70833;BME280;58452;59.418;17.962;2023-04-06T03:49:22;102445.19;;;0.94;83.48
70833;BME280;58452;59.418;17.962;2023-04-06T03:51:48;102435.13;;;0.91;83.59
70833;BME280;58452;59.418;17.962;2023-04-06T03:54:13;102438.59;;;0.87;83.94
70833;BME280;58452;59.418;17.962;2023-04-06T03:56:39;102442.00;;;0.86;83.34
70833;BME280;58452;59.418;17.962;2023-04-06T03:59:04;102443.69;;;0.87;83.84
70833;BME280;58452;59.418;17.962;2023-04-06T04:01:30;102448.63;;;0.92;83.58
70833;BME280;58452;59.418;17.962;2023-04-06T04:03:55;102443.91;;;0.78;84.30
70833;BME280;58452;59.418;17.962;2023-04-06T04:06:21;102447.09;;;0.86;84.35
70833;BME280;58452;59.418;17.962;2023-04-06T04:08:46;102447.09;;;0.86;84.21
70833;BME280;58452;59.418;17.962;2023-04-06T04:11:12;102445.34;;;0.88;83.73
70833;BME280;58452;59.418;17.962;2023-04-06T04:13:37;102452.00;;;0.94;84.28
70833;BME280;58452;59.418;17.962;2023-04-06T04:16:03;102448.44;;;0.99;83.75
70833;BME280;58452;59.418;17.962;2023-04-06T04:18:29;102453.53;;;0.99;84.27
70833;BME280;58452;59.418;17.962;2023-04-06T04:20:54;102455.22;;;1.01;83.85
70833;BME280;58452;59.418;17.962;2023-04-06T04:23:20;102455.59;;;0.85;83.63
70833;BME280;58452;59.418;17.962;2023-04-06T04:25:45;102460.75;;;0.81;84.32
70833;BME280;58452;59.418;17.962;2023-04-06T04:28:11;102456.41;;;0.86;84.18
70833;BME280;58452;59.418;17.962;2023-04-06T04:30:36;102452.00;;;0.94;84.30
70833;BME280;58452;59.418;17.962;2023-04-06T04:33:01;102460.47;;;0.93;83.86
70833;BME280;58452;59.418;17.962;2023-04-06T04:35:27;102459.53;;;0.97;84.35
70833;BME280;58452;59.418;17.962;2023-04-06T04:37:52;102461.03;;;1.04;83.76
70833;BME280;58452;59.418;17.962;2023-04-06T04:40:18;102464.31;;;1.09;84.35
70833;BME280;58452;59.418;17.962;2023-04-06T04:42:43;102456.88;;;1.02;83.47
70833;BME280;58452;59.418;17.962;2023-04-06T04:45:10;102461.22;;;0.96;83.32
70833;BME280;58452;59.418;17.962;2023-04-06T04:47:35;102471.28;;;1.03;84.09
70833;BME280;58452;59.418;17.962;2023-04-06T04:50:01;102466.25;;;0.99;83.79
70833;BME280;58452;59.418;17.962;2023-04-06T04:52:26;102465.63;;;0.91;84.15
70833;BME280;58452;59.418;17.962;2023-04-06T04:54:52;102475.47;;;1.04;83.70
70833;BME280;58452;59.418;17.962;2023-04-06T04:57:17;102476.97;;;1.11;83.49
70833;BME280;58452;59.418;17.962;2023-04-06T04:59:43;102475.06;;;1.19;83.75
70833;BME280;58452;59.418;17.962;2023-04-06T05:02:08;102479.22;;;1.23;83.43
70833;BME280;58452;59.418;17.962;2023-04-06T05:04:34;102477.53;;;1.22;83.15
70833;BME280;58452;59.418;17.962;2023-04-06T05:07:08;102484.31;;;1.21;83.38
70833;BME280;58452;59.418;17.962;2023-04-06T05:09:34;102480.91;;;1.24;83.13
70833;BME280;58452;59.418;17.962;2023-04-06T05:12:00;102478.28;;;1.27;83.37
70833;BME280;58452;59.418;17.962;2023-04-06T05:14:29;102481.00;;;1.19;82.62
70833;BME280;58452;59.418;17.962;2023-04-06T05:16:55;102481.72;;;1.24;82.95
70833;BME280;58452;59.418;17.962;2023-04-06T05:19:20;102489.00;;;1.06;83.38
70833;BME280;58452;59.418;17.962;2023-04-06T05:21:46;102472.50;;;1.20;82.91
70833;BME280;58452;59.418;17.962;2023-04-06T05:24:11;102477.50;;;1.23;82.77
70833;BME280;58452;59.418;17.962;2023-04-06T05:26:37;102480.69;;;1.31;82.96
70833;BME280;58452;59.418;17.962;2023-04-06T05:29:02;102483.84;;;1.39;82.89
70833;BME280;58452;59.418;17.962;2023-04-06T05:31:29;102478.72;;;1.42;82.51
70833;BME280;58452;59.418;17.962;2023-04-06T05:33:55;102488.25;;;1.34;82.85
70833;BME280;58452;59.418;17.962;2023-04-06T05:36:20;102487.97;;;1.45;83.00
70833;BME280;58452;59.418;17.962;2023-04-06T05:38:46;102495.38;;;1.54;82.73
70833;BME280;58452;59.418;17.962;2023-04-06T05:41:12;102482.56;;;1.57;82.25
70833;BME280;58452;59.418;17.962;2023-04-06T05:43:44;102488.88;;;1.42;82.12
70833;BME280;58452;59.418;17.962;2023-04-06T05:46:16;102494.72;;;1.46;82.67
70833;BME280;58452;59.418;17.962;2023-04-06T05:48:41;102500.38;;;1.57;82.23
70833;BME280;58452;59.418;17.962;2023-04-06T05:51:07;102503.06;;;1.51;82.31
70833;BME280;58452;59.418;17.962;2023-04-06T05:53:32;102505.00;;;1.43;82.45
70833;BME280;58452;59.418;17.962;2023-04-06T05:56:01;102501.47;;;1.47;82.98
70833;BME280;58452;59.418;17.962;2023-04-06T05:58:28;102504.81;;;1.49;82.74
70833;BME280;58452;59.418;17.962;2023-04-06T06:00:57;102504.50;;;1.61;82.39
70833;BME280;58452;59.418;17.962;2023-04-06T06:03:23;102509.28;;;1.72;82.51
70833;BME280;58452;59.418;17.962;2023-04-06T06:05:48;102507.09;;;1.58;82.15
70833;BME280;58452;59.418;17.962;2023-04-06T06:08:14;102502.47;;;1.41;82.01
70833;BME280;58452;59.418;17.962;2023-04-06T06:10:39;102507.66;;;1.37;83.26
70833;BME280;58452;59.418;17.962;2023-04-06T06:13:05;102510.00;;;1.46;83.17
70833;BME280;58452;59.418;17.962;2023-04-06T06:15:31;102509.91;;;1.49;83.27
70833;BME280;58452;59.418;17.962;2023-04-06T06:17:56;102511.16;;;1.65;82.90
70833;BME280;58452;59.418;17.962;2023-04-06T06:20:22;102510.56;;;1.56;82.26
70833;BME280;58452;59.418;17.962;2023-04-06T06:22:47;102514.16;;;1.48;83.07
70833;BME280;58452;59.418;17.962;2023-04-06T06:25:13;102521.00;;;1.46;82.54
70833;BME280;58452;59.418;17.962;2023-04-06T06:27:38;102519.78;;;1.61;82.61
70833;BME280;58452;59.418;17.962;2023-04-06T06:30:04;102514.19;;;1.79;82.65
70833;BME280;58452;59.418;17.962;2023-04-06T06:32:30;102512.22;;;1.87;81.84
70833;BME280;58452;59.418;17.962;2023-04-06T06:34:56;102512.03;;;1.95;82.00
70833;BME280;58452;59.418;17.962;2023-04-06T06:37:21;102506.03;;;1.98;82.21
70833;BME280;58452;59.418;17.962;2023-04-06T06:39:47;102512.56;;;2.06;81.60
70833;BME280;58452;59.418;17.962;2023-04-06T06:42:12;102524.06;;;2.19;81.47
70833;BME280;58452;59.418;17.962;2023-04-06T06:44:37;102524.53;;;2.32;80.95
70833;BME280;58452;59.418;17.962;2023-04-06T06:47:03;102520.91;;;2.40;80.78
70833;BME280;58452;59.418;17.962;2023-04-06T06:49:28;102522.34;;;2.49;79.95
70833;BME280;58452;59.418;17.962;2023-04-06T06:51:54;102528.91;;;2.56;80.06
70833;BME280;58452;59.418;17.962;2023-04-06T06:54:20;102526.88;;;2.67;79.49
70833;BME280;58452;59.418;17.962;2023-04-06T06:56:46;102526.59;;;2.76;79.26
70833;BME280;58452;59.418;17.962;2023-04-06T06:59:11;102532.63;;;2.74;78.79
70833;BME280;58452;59.418;17.962;2023-04-06T07:01:37;102532.56;;;2.75;77.78
70833;BME280;58452;59.418;17.962;2023-04-06T07:04:03;102529.84;;;2.81;78.13
70833;BME280;58452;59.418;17.962;2023-04-06T07:06:28;102526.22;;;2.88;77.58
70833;BME280;58452;59.418;17.962;2023-04-06T07:08:53;102522.59;;;2.94;77.80
70833;BME280;58452;59.418;17.962;2023-04-06T07:11:19;102528.47;;;2.71;78.03
70833;BME280;58452;59.418;17.962;2023-04-06T07:13:46;102528.78;;;2.87;77.53
70833;BME280;58452;59.418;17.962;2023-04-06T07:16:11;102529.34;;;2.97;77.64
70833;BME280;58452;59.418;17.962;2023-04-06T07:18:36;102528.16;;;3.07;77.92
70833;BME280;58452;59.418;17.962;2023-04-06T07:21:02;102532.91;;;3.17;77.66
70833;BME280;58452;59.418;17.962;2023-04-06T07:23:28;102530.16;;;3.23;77.43
70833;BME280;58452;59.418;17.962;2023-04-06T07:25:53;102536.09;;;3.24;77.04
70833;BME280;58452;59.418;17.962;2023-04-06T07:28:19;102532.63;;;3.26;76.67
70833;BME280;58452;59.418;17.962;2023-04-06T07:30:45;102535.91;;;3.04;76.95
70833;BME280;58452;59.418;17.962;2023-04-06T07:33:11;102538.66;;;3.24;76.50
70833;BME280;58452;59.418;17.962;2023-04-06T07:35:36;102543.47;;;3.33;76.90
70833;BME280;58452;59.418;17.962;2023-04-06T07:38:02;102540.00;;;3.34;76.40
70833;BME280;58452;59.418;17.962;2023-04-06T07:40:28;102538.13;;;3.39;76.04
70833;BME280;58452;59.418;17.962;2023-04-06T07:42:54;102536.19;;;3.45;75.88
70833;BME280;58452;59.418;17.962;2023-04-06T07:45:19;102536.63;;;3.58;75.69
70833;BME280;58452;59.418;17.962;2023-04-06T07:47:45;102536.16;;;3.72;75.50
70833;BME280;58452;59.418;17.962;2023-04-06T07:50:11;102536.69;;;3.81;75.25
70833;BME280;58452;59.418;17.962;2023-04-06T07:52:38;102539.69;;;3.92;75.27
70833;BME280;58452;59.418;17.962;2023-04-06T07:55:04;102529.47;;;3.92;74.11
70833;BME280;58452;59.418;17.962;2023-04-06T07:57:29;102539.69;;;3.92;73.63
70833;BME280;58452;59.418;17.962;2023-04-06T07:59:55;102534.13;;;4.05;73.93
70833;BME280;58452;59.418;17.962;2023-04-06T08:02:21;102533.69;;;4.17;73.36
70833;BME280;58452;59.418;17.962;2023-04-06T08:04:46;102540.94;;;4.27;72.72
70833;BME280;58452;59.418;17.962;2023-04-06T08:07:12;102543.25;;;4.33;72.93
70833;BME280;58452;59.418;17.962;2023-04-06T08:09:38;102541.78;;;4.28;72.31
70833;BME280;58452;59.418;17.962;2023-04-06T08:12:03;102540.69;;;4.33;71.55
70833;BME280;58452;59.418;17.962;2023-04-06T08:14:29;102546.31;;;4.43;70.87
70833;BME280;58452;59.418;17.962;2023-04-06T08:16:54;102546.19;;;4.46;70.73
70833;BME280;58452;59.418;17.962;2023-04-06T08:19:20;102545.75;;;4.58;71.13
70833;BME280;58452;59.418;17.962;2023-04-06T08:21:46;102547.28;;;4.62;70.78
70833;BME280;58452;59.418;17.962;2023-04-06T08:24:12;102548.19;;;4.61;67.61
70833;BME280;58452;59.418;17.962;2023-04-06T08:26:38;102546.16;;;4.69;68.39
70833;BME280;58452;59.418;17.962;2023-04-06T08:29:04;102553.59;;;4.75;68.38
70833;BME280;58452;59.418;17.962;2023-04-06T08:31:33;102552.50;;;4.81;68.75
70833;BME280;58452;59.418;17.962;2023-04-06T08:33:59;102555.84;;;4.83;68.09
70833;BME280;58452;59.418;17.962;2023-04-06T08:36:24;102554.00;;;4.86;67.90
70833;BME280;58452;59.418;17.962;2023-04-06T08:38:50;102549.41;;;4.95;67.05
70833;BME280;58452;59.418;17.962;2023-04-06T08:41:16;102551.78;;;4.77;66.18
70833;BME280;58452;59.418;17.962;2023-04-06T08:43:51;102550.78;;;4.60;65.60
70833;BME280;58452;59.418;17.962;2023-04-06T08:46:20;102545.72;;;4.36;65.75
70833;BME280;58452;59.418;17.962;2023-04-06T08:48:46;102550.94;;;4.55;65.21
70833;BME280;58452;59.418;17.962;2023-04-06T08:51:15;102547.94;;;4.67;65.77
70833;BME280;58452;59.418;17.962;2023-04-06T08:53:40;102543.47;;;4.72;65.59
70833;BME280;58452;59.418;17.962;2023-04-06T08:56:07;102547.16;;;4.65;64.35
70833;BME280;58452;59.418;17.962;2023-04-06T08:58:35;102544.50;;;4.68;64.10
70833;BME280;58452;59.418;17.962;2023-04-06T09:01:06;102545.13;;;4.73;63.29
70833;BME280;58452;59.418;17.962;2023-04-06T09:03:35;102543.59;;;4.69;62.93
70833;BME280;58452;59.418;17.962;2023-04-06T09:06:02;102550.44;;;4.69;63.05
70833;BME280;58452;59.418;17.962;2023-04-06T09:08:29;102550.97;;;4.77;63.40
70833;BME280;58452;59.418;17.962;2023-04-06T09:10:55;102547.63;;;4.75;63.76
70833;BME280;58452;59.418;17.962;2023-04-06T09:13:20;102541.47;;;4.80;62.76
70833;BME280;58452;59.418;17.962;2023-04-06T09:15:46;102548.03;;;4.86;63.31
70833;BME280;58452;59.418;17.962;2023-04-06T09:18:11;102551.06;;;4.96;63.45
70833;BME280;58452;59.418;17.962;2023-04-06T09:20:37;102550.97;;;4.99;64.43
70833;BME280;58452;59.418;17.962;2023-04-06T09:23:02;102550.50;;;4.67;63.53
70833;BME280;58452;59.418;17.962;2023-04-06T09:25:28;102545.75;;;4.80;63.55
70833;BME280;58452;59.418;17.962;2023-04-06T09:28:02;102539.06;;;4.76;63.31
70833;BME280;58452;59.418;17.962;2023-04-06T09:30:28;102546.19;;;4.89;63.01
70833;BME280;58452;59.418;17.962;2023-04-06T09:32:55;102545.88;;;4.77;61.89
70833;BME280;58452;59.418;17.962;2023-04-06T09:35:22;102543.47;;;4.72;60.94
70833;BME280;58452;59.418;17.962;2023-04-06T09:37:52;102546.91;;;4.71;62.06
70833;BME280;58452;59.418;17.962;2023-04-06T09:40:18;102543.59;;;4.69;62.72
70833;BME280;58452;59.418;17.962;2023-04-06T09:42:48;102543.06;;;4.61;64.29
70833;BME280;58452;59.418;17.962;2023-04-06T09:45:15;102543.34;;;4.75;65.33
70833;BME280;58452;59.418;17.962;2023-04-06T09:47:45;102547.88;;;4.69;61.97
70833;BME280;58452;59.418;17.962;2023-04-06T09:50:12;102545.78;;;4.35;62.65
70833;BME280;58452;59.418;17.962;2023-04-06T09:52:47;102535.59;;;4.55;63.80
70833;BME280;58452;59.418;17.962;2023-04-06T09:55:20;102541.69;;;4.74;63.77
70833;BME280;58452;59.418;17.962;2023-04-06T09:57:58;102551.19;;;4.92;63.83
70833;BME280;58452;59.418;17.962;2023-04-06T10:00:28;102548.03;;;5.08;62.83
70833;BME280;58452;59.418;17.962;2023-04-06T10:05:55;102539.97;;;5.17;60.78
70833;BME280;58452;59.418;17.962;2023-04-06T10:08:24;102538.06;;;5.22;61.92
70833;BME280;58452;59.418;17.962;2023-04-06T10:10:54;102541.00;;;5.33;61.58
70833;BME280;58452;59.418;17.962;2023-04-06T10:13:20;102545.97;;;5.36;61.07
70833;BME280;58452;59.418;17.962;2023-04-06T10:15:46;102541.91;;;5.52;62.17
70833;BME280;58452;59.418;17.962;2023-04-06T10:18:13;102552.72;;;5.59;62.48
70833;BME280;58452;59.418;17.962;2023-04-06T10:20:46;102546.88;;;5.55;60.76
70833;BME280;58452;59.418;17.962;2023-04-06T10:23:33;102544.00;;;5.63;59.83
70833;BME280;58452;59.418;17.962;2023-04-06T10:26:01;102549.69;;;5.69;59.34
70833;BME280;58452;59.418;17.962;2023-04-06T10:28:34;102549.97;;;5.63;58.87
70833;BME280;58452;59.418;17.962;2023-04-06T10:31:04;102545.22;;;5.54;59.17
70833;BME280;58452;59.418;17.962;2023-04-06T10:33:30;102545.81;;;5.20;58.12
70833;BME280;58452;59.418;17.962;2023-04-06T10:35:56;102550.84;;;5.22;57.79
70833;BME280;58452;59.418;17.962;2023-04-06T10:38:33;102550.31;;;5.14;58.69
70833;BME280;58452;59.418;17.962;2023-04-06T10:41:04;102545.28;;;5.32;58.28
70833;BME280;58452;59.418;17.962;2023-04-06T10:43:33;102533.88;;;5.39;59.05
70833;BME280;58452;59.418;17.962;2023-04-06T10:46:00;102538.81;;;5.44;60.16
70833;BME280;58452;59.418;17.962;2023-04-06T10:48:37;102537.66;;;5.51;59.34
70833;BME280;58452;59.418;17.962;2023-04-06T10:51:17;102538.03;;;5.62;60.73
70833;BME280;58452;59.418;17.962;2023-04-06T10:53:46;102543.72;;;5.69;60.11
70833;BME280;58452;59.418;17.962;2023-04-06T10:56:17;102538.22;;;5.78;60.22
70833;BME280;58452;59.418;17.962;2023-04-06T10:58:53;102542.31;;;5.62;59.78
70833;BME280;58452;59.418;17.962;2023-04-06T11:01:22;102535.59;;;5.79;60.12
70833;BME280;58452;59.418;17.962;2023-04-06T11:03:49;102539.38;;;5.91;57.97
70833;BME280;58452;59.418;17.962;2023-04-06T11:06:22;102537.72;;;5.90;55.93
70833;BME280;58452;59.418;17.962;2023-04-06T11:08:49;102537.09;;;5.83;57.65
70833;BME280;58452;59.418;17.962;2023-04-06T11:11:17;102533.06;;;5.59;57.73
70833;BME280;58452;59.418;17.962;2023-04-06T11:13:55;102531.00;;;5.67;57.84
70833;BME280;58452;59.418;17.962;2023-04-06T11:16:26;102531.91;;;5.86;59.11
70833;BME280;58452;59.418;17.962;2023-04-06T11:18:54;102526.91;;;6.02;58.68
70833;BME280;58452;59.418;17.962;2023-04-06T11:21:38;102530.06;;;6.09;57.78
70833;BME280;58452;59.418;17.962;2023-04-06T11:24:07;102526.66;;;5.89;57.46
70833;BME280;58452;59.418;17.962;2023-04-06T11:26:53;102533.31;;;5.94;57.11
70833;BME280;58452;59.418;17.962;2023-04-06T11:29:21;102525.75;;;5.70;53.92
70833;BME280;58452;59.418;17.962;2023-04-06T11:32:02;102526.31;;;5.77;56.15
70833;BME280;58452;59.418;17.962;2023-04-06T11:34:30;102520.34;;;5.76;56.59
70833;BME280;58452;59.418;17.962;2023-04-06T11:37:01;102525.97;;;5.84;55.66
70833;BME280;58452;59.418;17.962;2023-04-06T11:39:28;102525.50;;;5.36;54.25
70833;BME280;58452;59.418;17.962;2023-04-06T11:41:57;102525.78;;;4.66;58.44
70833;BME280;58452;59.418;17.962;2023-04-06T11:44:36;102527.28;;;5.14;60.42
70833;BME280;58452;59.418;17.962;2023-04-06T11:47:06;102519.44;;;5.77;58.12
70833;BME280;58452;59.418;17.962;2023-04-06T11:49:36;102523.47;;;6.22;59.63
70833;BME280;58452;59.418;17.962;2023-04-06T11:52:02;102518.09;;;6.81;59.66
70833;BME280;58452;59.418;17.962;2023-04-06T11:54:35;102514.56;;;7.35;59.18
70833;BME280;58452;59.418;17.962;2023-04-06T11:57:04;102509.63;;;7.80;58.23
70833;BME280;58452;59.418;17.962;2023-04-06T11:59:31;102507.03;;;8.13;53.93
70833;BME280;58452;59.418;17.962;2023-04-06T12:01:59;102504.97;;;8.36;54.00
70833;BME280;58452;59.418;17.962;2023-04-06T12:04:25;102508.50;;;8.64;54.37
70833;BME280;58452;59.418;17.962;2023-04-06T12:06:50;102508.81;;;9.04;54.17
70833;BME280;58452;59.418;17.962;2023-04-06T12:09:16;102506.91;;;9.21;49.48
70833;BME280;58452;59.418;17.962;2023-04-06T12:11:45;102499.03;;;9.24;48.73
70833;BME280;58452;59.418;17.962;2023-04-06T12:14:12;102500.31;;;8.58;46.95
70833;BME280;58452;59.418;17.962;2023-04-06T12:16:37;102498.84;;;8.83;49.86
70833;BME280;58452;59.418;17.962;2023-04-06T12:19:03;102501.41;;;8.83;48.35
70833;BME280;58452;59.418;17.962;2023-04-06T12:21:30;102500.16;;;8.91;48.50
70833;BME280;58452;59.418;17.962;2023-04-06T12:23:58;102495.22;;;9.02;47.12
70833;BME280;58452;59.418;17.962;2023-04-06T12:26:25;102491.16;;;8.52;49.34
70833;BME280;58452;59.418;17.962;2023-04-06T12:28:51;102490.28;;;8.83;51.08
70833;BME280;58452;59.418;17.962;2023-04-06T12:31:17;102494.81;;;8.94;49.99
70833;BME280;58452;59.418;17.962;2023-04-06T12:33:43;102483.06;;;9.04;49.18
70833;BME280;58452;59.418;17.962;2023-04-06T12:36:14;102482.75;;;9.24;47.84
70833;BME280;58452;59.418;17.962;2023-04-06T12:38:41;102485.34;;;8.94;47.16
70833;BME280;58452;59.418;17.962;2023-04-06T12:41:07;102473.19;;;8.66;47.69
70833;BME280;58452;59.418;17.962;2023-04-06T12:43:33;102478.91;;;8.87;48.60
70833;BME280;58452;59.418;17.962;2023-04-06T12:45:59;102471.47;;;8.97;49.59
70833;BME280;58452;59.418;17.962;2023-04-06T12:48:27;102464.38;;;9.00;47.34